Data for 01/15/2005

Time Sea-Level Adjusted Pressure Absolute Pressure Temperature Relative Humidity Dew Point   
(mb) (inHg) (mb) (inHg) (C) (F) (%) (C) (F)
00:05 1025 30.27 854 25.22 -21.1 -6 84 -23.1 -9.6
00:10 1025 30.27 854 25.22 -21 -5.7 85 -22.8 -9
00:15 1025 30.27 854 25.22 -20.7 -5.2 83 -22.9 -9.2
00:20 1024 30.24 854 25.22 -20.8 -5.5 85 -22.7 -8.9
00:25 1024 30.24 854 25.22 -20.3 -4.5 84 -22.3 -8.2
00:30 1024 30.24 854 25.22 -20 -4 83 -22.2 -8
00:35 1024 30.24 854 25.22 -19.8 -3.7 83 -22.1 -7.7
00:40 1024 30.24 854 25.22 -20 -4 82 -22.3 -8.2
00:45 1024 30.24 854 25.22 -20.6 -5 83 -22.7 -8.8
00:50 1024 30.24 854 25.22 -20.7 -5.2 84 -22.8 -9
00:55 1024 30.24 854 25.22 -20.4 -4.7 84 -22.4 -8.4
01:00 1024 30.24 854 25.22 -20.4 -4.7 84 -22.4 -8.4
01:05 1024 30.24 853 25.19 -20.5 -4.8 84 -22.5 -8.5
01:10 1024 30.24 853 25.19 -20.6 -5 83 -22.7 -8.9
01:15 1024 30.24 853 25.19 -20.7 -5.2 84 -22.7 -8.8
01:20 1024 30.24 854 25.22 -20.5 -4.8 84 -22.5 -8.5
01:25 1024 30.24 853 25.19 -20.2 -4.3 83 -22.3 -8.2
01:30 1024 30.24 853 25.19 -20 -4 83 -22.2 -7.9
01:35 1024 30.24 853 25.19 -20 -4 83 -22.2 -7.9
01:40 1024 30.24 853 25.19 -20.3 -4.5 85 -22.1 -7.9
01:45 1024 30.24 853 25.19 -20.1 -4.1 86 -21.9 -7.4
01:50 1024 30.24 854 25.22 -19.7 -3.5 85 -21.6 -7
01:55 1024 30.24 854 25.22 -19.4 -3 85 -21.4 -6.5
02:00 1024 30.24 854 25.22 -19.4 -2.9 84 -21.4 -6.6
02:05 1024 30.24 854 25.22 -19.9 -3.8 80 -22.5 -8.5
02:10 1024 30.24 854 25.22 -20.5 -4.8 85 -22.4 -8.3
02:15 1024 30.24 854 25.22 -20.4 -4.7 84 -22.5 -8.4
02:20 1025 30.27 854 25.22 -20.4 -4.8 83 -22.6 -8.6
02:25 1025 30.27 854 25.22 -20.4 -4.8 83 -22.6 -8.7
02:30 1025 30.27 854 25.22 -20.5 -4.8 83 -22.7 -8.8
02:35 1025 30.27 854 25.22 -20.6 -5.1 83 -22.8 -9.1
02:40 1025 30.27 854 25.22 -20.7 -5.3 83 -22.8 -9.1
02:45 1025 30.27 854 25.22 -20.9 -5.5 80 -23.4 -10.2
02:50 1025 30.27 854 25.22 -21.2 -6.2 83 -23.5 -10.2
02:55 1025 30.27 854 25.22 -21.4 -6.5 86 -23.2 -9.8
03:00 1025 30.27 854 25.22 -21.1 -6 87 -22.7 -8.9
03:05 1025 30.27 854 25.22 -20.8 -5.4 86 -22.5 -8.4
03:10 1025 30.27 854 25.22 -20.6 -5.1 87 -22.2 -8
03:15 1025 30.27 854 25.22 -20.7 -5.3 89 -22.1 -7.8
03:20 1025 30.27 854 25.22 -20.8 -5.4 89 -22.1 -7.9
03:25 1025 30.27 854 25.22 -21 -5.7 90 -22.2 -7.9
03:30 1025 30.27 854 25.22 -20.9 -5.6 91 -22 -7.6
03:35 1025 30.27 854 25.22 -20.5 -5 89 -21.8 -7.3
03:40 1025 30.27 854 25.22 -20.7 -5.3 90 -21.9 -7.5
03:45 1025 30.27 854 25.22 -20.7 -5.2 89 -22 -7.6
03:50 1025 30.27 854 25.22 -20.6 -5.1 87 -22.3 -8.1
03:55 1025 30.27 854 25.22 -20.6 -5.1 88 -22.1 -7.8
04:00 1025 30.27 854 25.22 -20.2 -4.3 88 -21.6 -7
04:05 1025 30.27 854 25.22 -19.9 -3.8 84 -22 -7.6
04:10 1025 30.27 854 25.22 -19.9 -3.8 86 -21.7 -7
04:15 1025 30.27 854 25.22 -19.7 -3.5 85 -21.6 -6.8
04:20 1025 30.27 854 25.22 -19.4 -3 86 -21.3 -6.3
04:25 1025 30.27 854 25.22 -19.3 -2.7 85 -21.2 -6.2
04:30 1025 30.27 854 25.22 -19.6 -3.2 86 -21.3 -6.3
04:35 1025 30.27 854 25.22 -19.5 -3.2 85 -21.5 -6.7
04:40 1025 30.27 854 25.22 -19.8 -3.7 85 -21.7 -7.1
04:45 1025 30.27 854 25.22 -20.1 -4.2 85 -22 -7.6
04:50 1025 30.27 854 25.22 -19.9 -3.9 86 -21.8 -7.2
04:55 1025 30.27 854 25.22 -19.6 -3.3 83 -21.8 -7.2
05:00 1025 30.27 854 25.22 -19.9 -3.9 83 -22.1 -7.8
05:05 1025 30.27 854 25.22 -20.3 -4.6 84 -22.3 -8.2
05:10 1025 30.27 854 25.22 -20.3 -4.6 86 -22.1 -7.8
05:15 1025 30.27 854 25.22 -20 -3.9 87 -21.6 -6.8
05:20 1025 30.27 854 25.22 -19.9 -3.8 86 -21.7 -7
05:25 1025 30.27 854 25.22 -19.8 -3.6 86 -21.5 -6.7
05:30 1025 30.27 854 25.22 -19.6 -3.3 86 -21.3 -6.4
05:35 1025 30.27 854 25.22 -19.6 -3.2 86 -21.3 -6.4
05:40 1025 30.27 854 25.22 -19.6 -3.2 86 -21.4 -6.5
05:45 1025 30.27 854 25.22 -19.7 -3.4 86 -21.4 -6.6
05:50 1025 30.27 854 25.22 -19.7 -3.4 87 -21.3 -6.3
05:55 1025 30.27 854 25.22 -19.8 -3.7 84 -21.9 -7.5
06:00 1025 30.27 854 25.22 -20.4 -4.6 86 -22.1 -7.8
06:05 1025 30.27 854 25.22 -20.4 -4.6 85 -22.3 -8.1
06:10 1025 30.27 854 25.22 -20.3 -4.5 85 -22.1 -7.8
06:15 1025 30.27 855 25.25 -20.1 -4.1 86 -21.9 -7.4
06:20 1025 30.27 855 25.25 -20 -4 85 -21.9 -7.5
06:25 1025 30.27 855 25.25 -19.9 -3.9 85 -21.9 -7.4
06:30 1025 30.27 855 25.25 -20.1 -4.2 85 -22 -7.6
06:35 1025 30.27 855 25.25 -20.4 -4.6 85 -22.2 -8
06:40 1025 30.27 854 25.22 -20.4 -4.7 86 -22.1 -7.8
06:45 1025 30.27 855 25.25 -19.9 -3.9 86 -21.8 -7.2
06:50 1025 30.27 855 25.25 -19.9 -3.8 82 -22.2 -7.9
06:55 1025 30.27 855 25.25 -20.6 -5 83 -22.7 -8.8
07:00 1026 30.3 855 25.25 -20.8 -5.4 85 -22.7 -8.9
07:05 1026 30.3 855 25.25 -20.7 -5.3 84 -22.8 -9
07:10 1026 30.3 855 25.25 -21 -5.8 84 -23 -9.5
07:15 1026 30.3 855 25.25 -21 -5.8 84 -23 -9.4
07:20 1026 30.3 855 25.25 -21.3 -6.3 84 -23.2 -9.8
07:25 1026 30.3 855 25.25 -21.3 -6.4 83 -23.5 -10.3
07:30 1026 30.3 855 25.25 -21.4 -6.6 86 -23.2 -9.8
07:35 1026 30.3 855 25.25 -20.9 -5.7 86 -22.7 -8.9
07:40 1026 30.3 855 25.25 -20.5 -4.8 85 -22.3 -8.2
07:45 1026 30.3 855 25.25 -20.4 -4.7 83 -22.5 -8.5
07:50 1026 30.3 855 25.25 -20.6 -5 84 -22.6 -8.6
07:55 1026 30.3 855 25.25 -20.6 -5 86 -22.4 -8.2
08:00 1026 30.3 855 25.25 -20.1 -4.2 85 -22 -7.6
08:05 1026 30.3 855 25.25 -20 -4 87 -21.6 -7
08:10 1026 30.3 855 25.25 -19.8 -3.7 86 -21.5 -6.8
08:15 1026 30.3 855 25.25 -19.7 -3.5 87 -21.4 -6.5
08:20 1026 30.3 855 25.25 -19.5 -3.1 87 -21.2 -6.2
08:25 1026 30.3 855 25.25 -19.2 -2.5 86 -21 -5.7
08:30 1026 30.3 855 25.25 -18.7 -1.7 84 -20.7 -5.3
08:35 1026 30.3 856 25.28 -18.3 -1 83 -20.6 -5
08:40 1027 30.33 856 25.28 -18.3 -0.9 83 -20.5 -4.8
08:45 1027 30.33 856 25.28 -18.1 -0.6 83 -20.3 -4.5
08:50 1027 30.33 856 25.28 -18.3 -0.9 80 -20.8 -5.5
08:55 1027 30.33 856 25.28 -18.7 -1.7 79 -21.6 -6.9
09:00 1027 30.33 856 25.28 -19 -2.2 82 -21.3 -6.4
09:05 1027 30.33 856 25.28 -18.7 -1.6 80 -21.3 -6.3
09:10 1027 30.33 856 25.28 -18.6 -1.4 80 -21.2 -6.2
09:15 1027 30.33 856 25.28 -18.6 -1.5 81 -21.1 -6
09:20 1027 30.33 856 25.28 -18.2 -0.7 81 -20.6 -5.1
09:25 1027 30.33 856 25.28 -17.7 0.2 80 -20.3 -4.6
09:30 1027 30.33 856 25.28 -17 1.4 81 -19.6 -3.3
09:35 1027 30.33 856 25.28 -16.2 2.9 76 -19.5 -3
09:40 1027 30.33 856 25.28 -15.8 3.6 76 -19.1 -2.3
09:45 1027 30.33 856 25.28 -15.4 4.2 73 -19.3 -2.7
09:50 1027 30.33 856 25.28 -15.1 4.8 74 -18.8 -1.8
09:55 1027 30.33 856 25.28 -14.5 5.9 72 -18.5 -1.2
10:00 1027 30.33 856 25.28 -14.1 6.6 73 -17.9 -0.2
10:05 1027 30.33 856 25.28 -13.6 7.6 68 -18.3 -0.9
10:10 1027 30.33 857 25.31 -13.4 7.8 67 -18.2 -0.8
10:15 1027 30.33 857 25.31 -12.5 9.5 64 -18 -0.3
10:20 1028 30.36 857 25.31 -11.9 10.6 62 -17.8 -0
10:25 1028 30.36 857 25.31 -11.5 11.3 61 -17.6 0.4
10:30 1028 30.36 857 25.31 -12 10.5 64 -17.4 0.6
10:35 1028 30.36 857 25.31 -12 10.5 62 -17.8 -0.1
10:40 1028 30.36 857 25.31 -11.8 10.8 60 -18 -0.4
10:45 1028 30.36 857 25.31 -11.5 11.3 59 -18.1 -0.5
10:50 1028 30.36 857 25.31 -11.3 11.7 56 -18.5 -1.3
10:55 1028 30.36 857 25.31 -11.6 11.2 56 -18.6 -1.5
11:00 1028 30.36 857 25.31 -11.8 10.7 56 -19 -2.2
11:05 1028 30.36 857 25.31 -12.5 9.4 58 -19.2 -2.6
11:10 1028 30.36 857 25.31 -12.8 9 60 -19.1 -2.4
11:15 1028 30.36 857 25.31 -13 8.5 59 -19.5 -3.1
11:20 1028 30.36 857 25.31 -13.1 8.4 60 -19.4 -2.9
11:25 1028 30.36 857 25.31 -13.5 7.7 61 -19.4 -2.9
11:30 1028 30.36 857 25.31 -13.6 7.6 63 -19.2 -2.6
11:35 1028 30.36 857 25.31 -13.6 7.5 61 -19.6 -3.3
11:40 1028 30.36 857 25.31 -13.6 7.4 63 -19.2 -2.6
11:45 1028 30.36 857 25.31 -13.7 7.4 62 -19.5 -3.1
11:50 1028 30.36 857 25.31 -13 8.6 61 -19.1 -2.3
11:55 1028 30.36 857 25.31 -13 8.6 61 -19.1 -2.4
12:00 1027 30.33 857 25.31 -13.3 8.1 62 -19.2 -2.5
12:05 1027 30.33 857 25.31 -12.9 8.8 59 -19.3 -2.8
12:10 1027 30.33 857 25.31 -12.5 9.4 57 -19.3 -2.8
12:15 1027 30.33 857 25.31 -12.4 9.8 56 -19.3 -2.8
12:20 1027 30.33 857 25.31 -12.2 10 55 -19.4 -3
12:25 1027 30.33 857 25.31 -11.9 10.6 56 -19.1 -2.4
12:30 1027 30.33 857 25.31 -13.3 8 61 -19.4 -2.9
12:35 1027 30.33 857 25.31 -13 8.5 61 -19.1 -2.3
12:40 1028 30.36 857 25.31 -12.6 9.4 61 -18.5 -1.3
12:45 1028 30.36 857 25.31 -12.2 10.1 59 -18.7 -1.7
12:50 1027 30.33 857 25.31 -11.6 11.1 57 -18.6 -1.4
12:55 1027 30.33 857 25.31 -11.6 11.1 56 -18.7 -1.7
13:00 1027 30.33 857 25.31 -11.6 11.2 55 -18.8 -1.8
13:05 1027 30.33 857 25.31 -12.1 10.3 58 -18.6 -1.6
13:10 1027 30.33 857 25.31 -11.4 11.6 57 -18.3 -1
13:15 1027 30.33 857 25.31 -11.1 12.1 56 -18.1 -0.6
13:20 1027 30.33 857 25.31 -11 12.3 55 -18.3 -0.9
13:25 1027 30.33 857 25.31 -11 12.2 54 -18.5 -1.3
13:30 1027 30.33 856 25.28 -11.4 11.4 59 -18 -0.4
13:35 1027 30.33 856 25.28 -11.6 11.1 56 -18.8 -1.9
13:40 1027 30.33 856 25.28 -11.4 11.5 56 -18.5 -1.2
13:45 1027 30.33 856 25.28 -11 12.3 55 -18.3 -0.9
13:50 1027 30.33 856 25.28 -10.9 12.4 56 -18.1 -0.6
13:55 1027 30.33 856 25.28 -10.8 12.7 56 -17.9 -0.2
14:00 1027 30.33 856 25.28 -11 12.1 59 -17.6 0.4
14:05 1027 30.33 856 25.28 -10.7 12.7 58 -17.5 0.5
14:10 1027 30.33 856 25.28 -10.5 13.2 56 -17.7 0.1
14:15 1027 30.33 856 25.28 -10.7 12.8 57 -17.7 0.1
14:20 1027 30.33 856 25.28 -11.4 11.4 61 -17.6 0.3
14:25 1027 30.33 856 25.28 -11.3 11.6 60 -17.7 0.2
14:30 1027 30.33 856 25.28 -11.2 11.8 59 -17.8 -0
14:35 1027 30.33 856 25.28 -11.2 11.8 59 -17.7 0.1
14:40 1027 30.33 856 25.28 -11.4 11.4 59 -18 -0.4
14:45 1027 30.33 856 25.28 -11.4 11.5 60 -17.7 0.2
14:50 1027 30.33 856 25.28 -11.1 11.9 60 -17.4 0.7
14:55 1027 30.33 856 25.28 -10.8 12.6 57 -17.7 0.2
15:00 1027 30.33 856 25.28 -11.3 11.8 60 -17.6 0.4
15:05 1027 30.33 856 25.28 -10.9 12.5 59 -17.4 0.7
15:10 1027 30.33 856 25.28 -10.4 13.2 57 -17.3 0.8
15:15 1027 30.33 857 25.31 -10.2 13.6 54 -17.8 -0
15:20 1027 30.33 857 25.31 -10.1 13.8 55 -17.4 0.6
15:25 1027 30.33 857 25.31 -10.6 12.9 57 -17.7 0.2
15:30 1028 30.36 857 25.31 -11.4 11.4 59 -17.9 -0.3
15:35 1028 30.36 857 25.31 -11.8 10.8 61 -17.9 -0.1
15:40 1028 30.36 857 25.31 -11.6 11 59 -18 -0.5
15:45 1028 30.36 857 25.31 -12.3 9.8 61 -18.5 -1.3
15:50 1028 30.36 857 25.31 -12.5 9.5 63 -18.2 -0.8
15:55 1028 30.36 857 25.31 -11.9 10.7 61 -17.9 -0.2
16:00 1028 30.36 857 25.31 -11.4 11.4 58 -18.1 -0.6
16:05 1028 30.36 857 25.31 -12.1 10.2 62 -17.9 -0.3
16:10 1028 30.36 857 25.31 -12.6 9.3 63 -18.4 -1.1
16:15 1028 30.36 857 25.31 -12.5 9.4 61 -18.6 -1.5
16:20 1028 30.36 857 25.31 -12.6 9.4 61 -18.7 -1.6
16:25 1028 30.36 857 25.31 -12.5 9.5 61 -18.5 -1.4
16:30 1028 30.36 857 25.31 -12.5 9.4 62 -18.4 -1.1
16:35 1028 30.36 857 25.31 -12.2 10.1 60 -18.4 -1.2
16:40 1028 30.36 857 25.31 -12.2 10.1 62 -18.1 -0.6
16:45 1028 30.36 857 25.31 -12.5 9.5 64 -18 -0.5
16:50 1028 30.36 857 25.31 -13.4 7.8 66 -18.4 -1.2
16:55 1028 30.36 857 25.31 -14.1 6.5 68 -18.8 -1.8
17:00 1028 30.36 857 25.31 -14.8 5.4 71 -19 -2.2
17:05 1028 30.36 857 25.31 -15 5 72 -19 -2.1
17:10 1028 30.36 857 25.31 -15.2 4.6 74 -18.9 -2
17:15 1028 30.36 857 25.31 -15 5 72 -19 -2.2
17:20 1028 30.36 857 25.31 -15 5 72 -18.9 -2
17:25 1028 30.36 857 25.31 -15.1 4.7 72 -19 -2.3
17:30 1028 30.36 857 25.31 -15.3 4.5 74 -18.9 -2.1
17:35 1028 30.36 857 25.31 -15.7 3.8 75 -19.1 -2.4
17:40 1028 30.36 857 25.31 -15.6 3.9 75 -19.1 -2.4
17:45 1028 30.36 857 25.31 -15.7 3.8 76 -19 -2.2
17:50 1028 30.36 857 25.31 -15.9 3.5 76 -19.2 -2.5
17:55 1028 30.36 857 25.31 -15.9 3.3 76 -19.2 -2.6
18:00 1028 30.36 857 25.31 -16.1 3.1 77 -19.3 -2.7
18:05 1028 30.36 857 25.31 -16.2 2.8 77 -19.4 -2.9
18:10 1028 30.36 857 25.31 -16.4 2.6 78 -19.4 -2.9
18:15 1028 30.36 857 25.31 -16.5 2.3 78 -19.4 -3
18:20 1028 30.36 857 25.31 -16.3 2.7 77 -19.4 -3
18:25 1028 30.36 857 25.31 -16.2 2.8 76 -19.6 -3.2
18:30 1028 30.36 857 25.31 -16.8 1.8 79 -19.6 -3.3
18:35 1028 30.36 857 25.31 -17 1.5 79 -19.8 -3.7
18:40 1028 30.36 857 25.31 -17 1.5 79 -19.8 -3.6
18:45 1028 30.36 857 25.31 -16.8 1.8 77 -19.8 -3.7
18:50 1028 30.36 857 25.31 -16.8 1.8 77 -20 -4
18:55 1028 30.36 857 25.31 -16.9 1.6 77 -20 -4
19:00 1028 30.36 857 25.31 -17.1 1.2 78 -20 -4.1
19:05 1028 30.36 858 25.34 -17.3 0.9 79 -20.1 -4.1
19:10 1028 30.36 858 25.34 -17.3 0.9 79 -20.1 -4.2
19:15 1028 30.36 858 25.34 -17.1 1.2 78 -20.1 -4.3
19:20 1028 30.36 858 25.34 -17.3 0.8 78 -20.3 -4.5
19:25 1028 30.36 858 25.34 -17.3 0.8 78 -20.3 -4.6
19:30 1028 30.36 858 25.34 -17.4 0.7 78 -20.4 -4.7
19:35 1028 30.36 858 25.34 -17.7 0.2 79 -20.4 -4.8
19:40 1028 30.36 858 25.34 -17.9 -0.2 81 -20.4 -4.7
19:45 1028 30.36 858 25.34 -18 -0.4 82 -20.4 -4.6
19:50 1028 30.36 857 25.31 -18.2 -0.8 84 -20.3 -4.5
19:55 1028 30.36 857 25.31 -18.5 -1.4 85 -20.5 -4.8
20:00 1028 30.36 857 25.31 -18.5 -1.4 85 -20.4 -4.8
20:05 1028 30.36 857 25.31 -18.5 -1.3 86 -20.3 -4.5
20:10 1028 30.36 857 25.31 -18.3 -0.9 85 -20.2 -4.3
20:15 1028 30.36 857 25.31 -17.9 -0.3 84 -20.1 -4.1
20:20 1028 30.36 857 25.31 -17.5 0.4 81 -20.1 -4.1
20:25 1028 30.36 857 25.31 -17.4 0.7 80 -20.1 -4.1
20:30 1028 30.36 857 25.31 -17.3 0.8 80 -20 -4
20:35 1028 30.36 857 25.31 -17.3 0.8 80 -19.9 -3.9
20:40 1028 30.36 857 25.31 -17.3 0.9 80 -20 -4
20:45 1028 30.36 857 25.31 -17.4 0.8 79 -20.1 -4.3
20:50 1028 30.36 857 25.31 -17.6 0.3 81 -20.2 -4.3
20:55 1028 30.36 857 25.31 -17.8 -0 83 -20.1 -4.2
21:00 1028 30.36 857 25.31 -17.8 -0.1 79 -20.6 -5
21:05 1028 30.36 857 25.31 -18 -0.3 81 -20.5 -4.9
21:10 1028 30.36 857 25.31 -17.8 -0.1 81 -20.3 -4.6
21:15 1028 30.36 857 25.31 -17.5 0.4 80 -20.2 -4.3
21:20 1027 30.33 857 25.31 -17.5 0.6 79 -20.2 -4.4
21:25 1027 30.33 857 25.31 -17.5 0.5 80 -20.2 -4.4
21:30 1027 30.33 857 25.31 -17.1 1.1 79 -20 -4
21:35 1027 30.33 857 25.31 -17 1.5 77 -20.1 -4.2
21:40 1027 30.33 857 25.31 -17 1.4 76 -20.3 -4.6
21:45 1027 30.33 857 25.31 -17 1.4 77 -20.1 -4.2
21:50 1027 30.33 857 25.31 -16.8 1.7 75 -20.3 -4.6
21:55 1027 30.33 857 25.31 -16.7 2 77 -19.9 -3.7
22:00 1027 30.33 857 25.31 -16.7 2 74 -20.2 -4.4
22:05 1027 30.33 857 25.31 -16.9 1.6 75 -20.3 -4.5
22:10 1027 30.33 857 25.31 -16.9 1.6 76 -20.2 -4.4
22:15 1027 30.33 856 25.28 -17.1 1.3 76 -20.4 -4.7
22:20 1027 30.33 856 25.28 -17.5 0.4 79 -20.4 -4.7
22:25 1027 30.33 856 25.28 -17.8 0 82 -20.2 -4.3
22:30 1027 30.33 856 25.28 -17.7 0.2 83 -19.9 -3.8
22:35 1027 30.33 856 25.28 -17.5 0.5 82 -19.9 -3.8
22:40 1027 30.33 856 25.28 -17.4 0.8 83 -19.6 -3.3
22:45 1027 30.33 856 25.28 -17.1 1.3 82 -19.4 -2.9
22:50 1027 30.33 856 25.28 -16.7 2 81 -19.2 -2.6
22:55 1027 30.33 856 25.28 -16.3 2.6 81 -18.9 -2.1
23:00 1027 30.33 856 25.28 -16.2 2.9 83 -18.4 -1.1
23:05 1027 30.33 856 25.28 -16.1 3.1 80 -18.7 -1.7
23:10 1027 30.33 856 25.28 -16.2 2.8 81 -18.7 -1.7
23:15 1027 30.33 856 25.28 -16.1 3 80 -18.9 -2
23:20 1027 30.33 856 25.28 -16.1 3 80 -18.8 -1.8
23:25 1027 30.33 856 25.28 -16.2 2.8 81 -18.8 -1.8
23:30 1027 30.33 856 25.28 -16.2 2.9 81 -18.7 -1.7
23:35 1027 30.33 856 25.28 -15.9 3.4 77 -19 -2.3
23:40 1026 30.3 856 25.28 -16.1 3 77 -19.2 -2.6
23:45 1026 30.3 855 25.25 -16.4 2.4 82 -18.8 -1.9
23:50 1026 30.3 855 25.25 -16.3 2.7 83 -18.5 -1.3
23:55 1026 30.3 855 25.25 -16.2 2.8 87 -18 -0.4
24:00 1026 30.3 855 25.25 -15.9 3.3 85 -17.9 -0.3